Time;durP1;ratioP1;P1;durP2;ratioP2;P2;SDS_P1;SDS_P2;PMS_P1;PMS_P2;Temp;Humidity;BMP_temperature;BMP_pressure;BME280_temperature;BME280_humidity;BME280_pressure;Samples;Min_cycle;Max_cycle;Signal;HPM_P1;HPM_P2
2022/06/25 00:01:51;;;;;;;;;;;;;;;22.02;58.43;99907.28;5019976;28;9142;-88
2022/06/25 00:07:01;;;;;;;;;;;;;;;21.97;58.26;99909.03;5027810;28;7097;-88
2022/06/25 00:09:27;;;;;;;;;;;;;;;21.94;58.05;99903.84;5024356;28;7023;-88
2022/06/25 00:14:38;;;;;;;;;;;;;;;21.89;58.33;99903.00;5029771;28;7074;-88
2022/06/25 00:17:04;;;;;;;;;;;;;;;21.87;58.46;99908.22;5005434;28;6796;-88
2022/06/25 00:19:30;;;;;;;;;;;;;;;21.88;58.33;99911.69;5024031;28;6765;-88
2022/06/25 00:21:55;;;;;;;;;;;;;;;21.85;58.28;99903.91;5014149;28;6827;-88
2022/06/25 00:24:22;;;;;;;;;;;;;;;21.82;58.34;99910.00;5002152;28;7591;-87
2022/06/25 00:26:47;;;;;;;;;;;;;;;21.81;58.41;99913.50;5006347;28;6949;-87
2022/06/25 00:29:14;;;;;;;;;;;;;;;21.77;58.30;99904.81;5017726;28;7144;-87
2022/06/25 00:31:40;;;;;;;;;;;;;;;21.76;58.21;99913.50;5024542;28;6840;-87
2022/06/25 00:34:06;;;;;;;;;;;;;;;21.75;57.95;99919.59;5011199;28;6760;-87
2022/06/25 00:36:32;;;;;;;;;;;;;;;21.72;58.16;99909.16;5020358;28;6824;-87
2022/06/25 00:38:58;;;;;;;;;;;;;;;21.70;58.54;99916.16;5011646;28;7137;-87
2022/06/25 00:41:24;;;;;;;;;;;;;;;21.69;58.29;99924.84;5018693;28;7132;-88
2022/06/25 00:43:51;;;;;;;;;;;;;;;21.69;58.54;99924.00;5021951;28;7021;-88
2022/06/25 00:46:16;;;;;;;;;;;;;;;21.70;58.63;99925.72;5007897;28;6768;-88
2022/06/25 00:48:43;;;;;;;;;;;;;;;21.68;58.33;99925.72;5027217;28;6760;-88
2022/06/25 00:51:14;;;;;;;;;;;;;;;21.70;58.41;99925.72;5003521;28;6773;-88
2022/06/25 00:53:45;;;;;;;;;;;;;;;21.71;58.41;99927.47;5014079;28;7872;-88
2022/06/25 00:56:14;;;;;;;;;;;;;;;21.70;58.13;99934.41;5004479;28;6812;-88
2022/06/25 00:58:42;;;;;;;;;;;;;;;21.68;57.98;99930.06;5015256;28;6930;-88
2022/06/25 01:01:09;;;;;;;;;;;;;;;21.65;58.21;99941.38;5008972;28;6796;-88
2022/06/25 01:03:39;;;;;;;;;;;;;;;21.65;58.06;99943.97;5021735;28;6792;-88
2022/06/25 01:06:06;;;;;;;;;;;;;;;21.63;58.15;99949.19;5026273;28;6796;-88
2022/06/25 01:08:34;;;;;;;;;;;;;;;21.61;57.97;99953.53;5026421;28;7580;-88
2022/06/25 01:11:01;;;;;;;;;;;;;;;21.60;57.98;99954.44;5025099;28;7244;-88
2022/06/25 01:13:29;;;;;;;;;;;;;;;21.56;58.04;99957.91;5032012;28;6953;-88
2022/06/25 01:15:58;;;;;;;;;;;;;;;21.55;58.01;99958.78;5026930;28;7196;-88
2022/06/25 01:18:24;;;;;;;;;;;;;;;21.51;57.96;99954.47;5007153;28;6971;-88
2022/06/25 01:20:49;;;;;;;;;;;;;;;21.49;57.91;99957.06;5010325;28;6760;-88
2022/06/25 01:23:15;;;;;;;;;;;;;;;21.45;57.93;99957.97;5021000;28;6866;-88
2022/06/25 01:25:41;;;;;;;;;;;;;;;21.43;57.98;99958.84;5024725;28;6828;-88
2022/06/25 01:28:09;;;;;;;;;;;;;;;21.42;58.05;99962.31;5022110;28;7108;-88
2022/06/25 01:30:36;;;;;;;;;;;;;;;21.41;58.17;99973.63;5026640;28;7007;-88
2022/06/25 01:33:01;;;;;;;;;;;;;;;21.38;58.10;99966.69;5025860;28;6985;-88
2022/06/25 01:35:27;;;;;;;;;;;;;;;21.35;58.03;99974.50;5010129;28;6788;-88
2022/06/25 01:37:53;;;;;;;;;;;;;;;21.31;58.10;99972.78;5010909;28;6768;-88
2022/06/25 01:40:18;;;;;;;;;;;;;;;21.29;58.04;99966.72;5026612;28;7840;-88
2022/06/25 01:42:59;;;;;;;;;;;;;;;21.27;58.24;99976.28;5025690;28;6764;-88
2022/06/25 01:45:29;;;;;;;;;;;;;;;21.23;58.47;99975.41;5014227;28;7144;-88
2022/06/25 01:47:55;;;;;;;;;;;;;;;21.21;58.18;99978.00;5027809;28;6885;-88
2022/06/25 01:50:21;;;;;;;;;;;;;;;21.22;58.52;99978.88;5013130;28;6780;-88
2022/06/25 01:52:47;;;;;;;;;;;;;;;21.20;58.38;99981.50;5029418;28;6772;-88
2022/06/25 01:55:15;;;;;;;;;;;;;;;21.18;58.64;99978.03;5014155;28;7077;-88
2022/06/25 01:57:41;;;;;;;;;;;;;;;21.15;58.79;99980.66;5028884;28;6842;-88
2022/06/25 02:00:13;;;;;;;;;;;;;;;21.12;58.60;99978.03;5014681;28;6784;-88
2022/06/25 02:02:39;;;;;;;;;;;;;;;21.11;58.42;99978.91;5008332;28;8188;-88
2022/06/25 02:05:06;;;;;;;;;;;;;;;21.09;58.56;99986.72;5004048;28;6788;-88
2022/06/25 02:07:32;;;;;;;;;;;;;;;21.09;58.87;99985.88;5028481;28;6792;-88
2022/06/25 02:09:58;;;;;;;;;;;;;;;21.06;58.45;99989.34;5008015;28;6934;-88
2022/06/25 02:12:23;;;;;;;;;;;;;;;21.03;58.40;99989.34;5008552;28;6816;-88
2022/06/25 02:14:49;;;;;;;;;;;;;;;20.99;58.79;99985.00;5028695;28;7120;-88
2022/06/25 02:17:15;;;;;;;;;;;;;;;20.94;58.66;99987.59;5011827;28;6788;-88
2022/06/25 02:19:41;;;;;;;;;;;;;;;20.90;58.07;99995.44;5007688;28;7045;-88
2022/06/25 02:22:07;;;;;;;;;;;;;;;20.85;57.97;99997.19;5006810;28;6943;-88
2022/06/25 02:24:33;;;;;;;;;;;;;;;20.77;58.33;99992.81;5025516;28;6934;-88
2022/06/25 02:26:58;;;;;;;;;;;;;;;20.73;59.05;99998.91;5012479;28;6976;-88
2022/06/25 02:29:24;;;;;;;;;;;;;;;20.69;58.86;100002.34;5007678;28;7240;-87
2022/06/25 02:31:50;;;;;;;;;;;;;;;20.70;59.06;100008.44;5020746;28;7252;-87
2022/06/25 02:34:16;;;;;;;;;;;;;;;20.70;59.16;100011.06;5025211;28;6954;-87
2022/06/25 02:36:41;;;;;;;;;;;;;;;20.71;59.26;100015.38;5029054;28;6830;-87
2022/06/25 02:39:07;;;;;;;;;;;;;;;20.70;59.11;100017.09;5013890;28;8401;-87
2022/06/25 02:41:33;;;;;;;;;;;;;;;20.69;59.45;100017.97;5010869;28;7096;-87
2022/06/25 02:43:58;;;;;;;;;;;;;;;20.67;59.47;100022.31;5007927;28;7145;-87
2022/06/25 02:46:26;;;;;;;;;;;;;;;20.66;59.07;100029.25;5027665;28;6817;-87
2022/06/25 02:48:52;;;;;;;;;;;;;;;20.66;59.71;100029.25;5008123;28;6991;-87
2022/06/25 02:51:18;;;;;;;;;;;;;;;20.65;59.50;100037.94;5026211;28;7179;-85
2022/06/25 02:53:44;;;;;;;;;;;;;;;20.68;59.47;100034.47;5025058;28;7057;-84
2022/06/25 02:58:54;;;;;;;;;;;;;;;20.71;59.67;100041.41;5029527;28;6796;-83
2022/06/25 03:01:21;;;;;;;;;;;;;;;20.75;59.56;100037.94;5025593;28;7748;-84
2022/06/25 03:03:46;;;;;;;;;;;;;;;20.78;60.00;100038.81;5023625;28;6856;-84
2022/06/25 03:06:12;;;;;;;;;;;;;;;20.82;60.08;100037.13;5025610;28;8023;-84
2022/06/25 03:08:38;;;;;;;;;;;;;;;20.86;59.81;100037.97;5008437;28;6768;-84
2022/06/25 03:11:03;;;;;;;;;;;;;;;20.86;59.84;100033.66;5029477;28;6772;-84
2022/06/25 03:13:31;;;;;;;;;;;;;;;20.88;59.51;100038.84;5013375;28;6890;-84
2022/06/25 03:15:57;;;;;;;;;;;;;;;20.89;59.51;100040.56;5008168;28;6792;-83
2022/06/25 03:18:23;;;;;;;;;;;;;;;20.91;59.68;100044.06;5013533;28;6846;-84
2022/06/25 03:20:50;;;;;;;;;;;;;;;20.93;59.74;100037.97;5028084;28;6780;-84
2022/06/25 03:23:16;;;;;;;;;;;;;;;20.95;59.33;100038.84;5023702;28;6800;-84
2022/06/25 03:25:42;;;;;;;;;;;;;;;20.99;59.55;100042.31;5027790;28;7549;-84
2022/06/25 03:28:08;;;;;;;;;;;;;;;21.02;59.99;100034.50;5005075;28;6875;-83
2022/06/25 03:30:34;;;;;;;;;;;;;;;21.04;59.71;100034.50;5022946;28;6855;-84
2022/06/25 03:33:00;;;;;;;;;;;;;;;21.08;59.72;100038.84;5012665;28;6827;-84
2022/06/25 03:35:26;;;;;;;;;;;;;;;21.10;59.40;100034.50;5027355;28;6792;-84
2022/06/25 03:37:52;;;;;;;;;;;;;;;21.12;59.51;100039.72;5011294;28;6831;-85
2022/06/25 03:40:18;;;;;;;;;;;;;;;21.15;59.15;100045.78;5027160;28;6767;-84
2022/06/25 03:42:44;;;;;;;;;;;;;;;21.18;59.39;100043.16;5009564;28;7131;-84
2022/06/25 03:45:10;;;;;;;;;;;;;;;21.21;59.34;100039.69;5007097;28;7206;-84
2022/06/25 03:47:36;;;;;;;;;;;;;;;21.23;59.19;100040.56;5007759;28;7136;-84
2022/06/25 03:50:03;;;;;;;;;;;;;;;21.28;59.22;100037.94;5008861;28;7203;-85
2022/06/25 03:52:28;;;;;;;;;;;;;;;21.28;59.22;100036.19;5010284;28;6943;-87
2022/06/25 03:54:54;;;;;;;;;;;;;;;21.33;59.20;100036.19;5005871;28;7419;-83
2022/06/25 03:57:20;;;;;;;;;;;;;;;21.37;59.07;100037.94;5012326;28;6793;-81
2022/06/25 03:59:46;;;;;;;;;;;;;;;21.41;58.76;100050.06;5024934;28;6776;-81
2022/06/25 04:02:11;;;;;;;;;;;;;;;21.43;58.73;100045.72;5000924;28;7213;-81
2022/06/25 04:04:37;;;;;;;;;;;;;;;21.46;58.85;100048.31;5023827;28;6847;-82
2022/06/25 04:07:03;;;;;;;;;;;;;;;21.51;58.71;100045.72;5026519;28;6752;-81
2022/06/25 04:09:30;;;;;;;;;;;;;;;21.56;58.78;100053.53;5008545;28;6780;-82
2022/06/25 04:11:56;;;;;;;;;;;;;;;21.62;58.92;100048.25;5004432;28;6816;-81
2022/06/25 04:14:22;;;;;;;;;;;;;;;21.68;58.46;100055.22;5004801;28;6815;-81
2022/06/25 04:16:49;;;;;;;;;;;;;;;21.75;58.37;100054.34;5022540;28;7232;-84
2022/06/25 04:19:14;;;;;;;;;;;;;;;21.90;59.04;100059.50;5006109;28;6783;-85
2022/06/25 04:21:40;;;;;;;;;;;;;;;22.09;59.02;100058.53;5008921;28;6768;-85
2022/06/25 04:24:06;;;;;;;;;;;;;;;22.32;59.07;100059.31;5011331;28;6912;-84
2022/06/25 04:26:31;;;;;;;;;;;;;;;22.55;58.60;100060.91;5028707;28;6813;-85
2022/06/25 04:29:03;;;;;;;;;;;;;;;22.75;57.86;100058.16;5008962;28;6784;-85
2022/06/25 04:31:31;;;;;;;;;;;;;;;22.94;57.40;100067.59;5003790;28;6796;-85
2022/06/25 04:33:58;;;;;;;;;;;;;;;23.07;56.64;100065.75;5026258;28;6784;-85
2022/06/25 04:36:24;;;;;;;;;;;;;;;23.25;56.79;100069.91;5010644;28;7852;-85
2022/06/25 04:38:50;;;;;;;;;;;;;;;23.42;56.44;100072.41;5026369;28;6940;-85
2022/06/25 04:41:17;;;;;;;;;;;;;;;23.60;55.95;100075.69;5018883;28;6784;-85
2022/06/25 04:43:43;;;;;;;;;;;;;;;23.77;56.02;100068.53;5019948;28;6800;-85
2022/06/25 04:46:09;;;;;;;;;;;;;;;23.97;55.85;100078.75;5006637;28;6915;-86
2022/06/25 04:48:35;;;;;;;;;;;;;;;24.15;55.27;100068.97;5027436;28;6824;-86
2022/06/25 04:51:02;;;;;;;;;;;;;;;24.27;54.47;100068.78;5024400;28;7212;-86
2022/06/25 04:53:28;;;;;;;;;;;;;;;24.36;54.03;100073.00;5004122;28;6796;-81
2022/06/25 04:55:53;;;;;;;;;;;;;;;24.39;53.64;100079.97;5011949;28;6984;-81
2022/06/25 04:58:19;;;;;;;;;;;;;;;24.42;53.33;100085.16;5020305;28;6907;-82
2022/06/25 05:00:45;;;;;;;;;;;;;;;24.49;53.27;100086.81;5019712;28;8810;-84
2022/06/25 05:03:10;;;;;;;;;;;;;;;24.62;53.91;100090.09;5042816;28;6985;-83
2022/06/25 05:05:36;;;;;;;;;;;;;;;24.82;53.06;100092.47;5003366;28;6919;-89
2022/06/25 05:08:03;;;;;;;;;;;;;;;25.05;52.98;100091.22;5043664;28;7823;-83
2022/06/25 05:10:29;;;;;;;;;;;;;;;25.32;52.45;100086.38;5028296;28;7003;-84
2022/06/25 05:13:13;;;;;;;;;;;;;;;25.60;52.52;100085.88;5016430;28;7111;-84
2022/06/25 05:15:41;;;;;;;;;;;;;;;25.88;51.13;100089.72;5028858;28;6791;-84
2022/06/25 05:18:08;;;;;;;;;;;;;;;26.09;50.96;100088.41;5006364;28;6800;-84
2022/06/25 05:20:42;;;;;;;;;;;;;;;26.27;50.50;100094.16;5021121;28;6788;-85
2022/06/25 05:23:08;;;;;;;;;;;;;;;26.45;49.78;100095.53;5007161;28;6959;-85
2022/06/25 05:25:36;;;;;;;;;;;;;;;26.64;49.33;100084.59;5030418;28;6848;-80
2022/06/25 05:28:03;;;;;;;;;;;;;;;26.84;48.85;100094.59;5028017;28;6937;-80
2022/06/25 05:30:29;;;;;;;;;;;;;;;26.97;48.45;100098.69;5040172;28;6855;-80
2022/06/25 05:32:54;;;;;;;;;;;;;;;27.07;47.70;100098.47;5027341;28;6930;-80
2022/06/25 05:35:20;;;;;;;;;;;;;;;27.10;47.14;100098.38;5006279;28;7242;-80
2022/06/25 05:37:46;;;;;;;;;;;;;;;27.17;47.11;100105.22;5025830;28;8803;-80
2022/06/25 05:40:12;;;;;;;;;;;;;;;27.24;46.44;100104.16;5030599;28;6967;-80
2022/06/25 05:42:37;;;;;;;;;;;;;;;27.26;45.92;100114.63;5025502;28;6772;-80
2022/06/25 05:45:04;;;;;;;;;;;;;;;27.24;45.57;100117.31;5031094;28;6792;-80
2022/06/25 05:47:29;;;;;;;;;;;;;;;27.18;45.48;100112.19;5031921;28;7031;-80
2022/06/25 05:49:55;;;;;;;;;;;;;;;27.05;45.27;100098.50;5029474;28;8166;-80
2022/06/25 05:52:22;;;;;;;;;;;;;;;26.89;44.95;100106.75;5006858;28;7509;-80
2022/06/25 05:54:48;;;;;;;;;;;;;;;26.68;45.07;100105.50;5005624;28;7978;-81
2022/06/25 05:57:14;;;;;;;;;;;;;;;26.48;45.03;100100.69;5013289;28;6776;-80
2022/06/25 05:59:40;;;;;;;;;;;;;;;26.28;45.30;100111.66;5022078;28;6772;-80
2022/06/25 06:02:06;;;;;;;;;;;;;;;26.05;45.24;100121.72;5037358;28;7204;-80
2022/06/25 06:04:32;;;;;;;;;;;;;;;25.84;45.73;100111.69;5009048;28;6789;-80
2022/06/25 06:06:59;;;;;;;;;;;;;;;25.62;45.58;100125.19;5005252;28;6886;-79
2022/06/25 06:09:27;;;;;;;;;;;;;;;25.42;45.67;100123.78;5005168;28;6792;-80
2022/06/25 06:11:55;;;;;;;;;;;;;;;25.24;46.30;100128.44;5046047;28;7014;-79
2022/06/25 06:14:22;;;;;;;;;;;;;;;25.12;46.59;100133.06;5038779;28;6876;-79
2022/06/25 06:16:48;;;;;;;;;;;;;;;25.07;47.02;100125.28;5039912;28;6811;-78
2022/06/25 06:19:13;;;;;;;;;;;;;;;25.06;46.95;100131.38;5035468;28;6768;-78
2022/06/25 06:21:40;;;;;;;;;;;;;;;25.06;47.56;100127.00;5022090;28;7851;-79
2022/06/25 06:24:06;;;;;;;;;;;;;;;25.09;47.26;100128.72;5008191;28;6856;-79
2022/06/25 06:26:36;;;;;;;;;;;;;;;25.12;47.79;100128.66;5014551;28;6947;-79
2022/06/25 06:29:02;;;;;;;;;;;;;;;25.16;47.49;100127.75;5028723;28;6804;-78
2022/06/25 06:31:28;;;;;;;;;;;;;;;25.17;47.11;100121.59;5009549;28;6784;-79
2022/06/25 06:33:54;;;;;;;;;;;;;;;25.20;46.96;100123.28;5010069;28;6784;-79
2022/06/25 06:36:19;;;;;;;;;;;;;;;25.26;47.37;100120.56;5027736;28;7232;-79
2022/06/25 06:38:45;;;;;;;;;;;;;;;25.36;47.16;100123.91;5025896;28;6780;-79
2022/06/25 06:41:13;;;;;;;;;;;;;;;25.51;47.25;100128.03;5014876;28;6819;-78
2022/06/25 06:43:39;;;;;;;;;;;;;;;25.69;47.30;100132.06;5015759;28;6811;-78
2022/06/25 06:46:05;;;;;;;;;;;;;;;25.88;47.00;100129.06;5024770;28;6800;-78
2022/06/25 06:48:31;;;;;;;;;;;;;;;26.03;46.52;100135.78;5028480;28;7728;-79
2022/06/25 06:50:57;;;;;;;;;;;;;;;26.22;46.63;100125.81;5026339;28;6947;-79
2022/06/25 06:53:23;;;;;;;;;;;;;;;26.40;46.59;100129.78;5005174;28;6871;-79
2022/06/25 06:55:50;;;;;;;;;;;;;;;26.68;46.39;100134.41;5005208;28;6792;-79
2022/06/25 06:58:17;;;;;;;;;;;;;;;27.00;45.88;100130.16;5041043;28;7862;-79
2022/06/25 07:00:43;;;;;;;;;;;;;;;27.29;45.94;100127.72;5026077;28;6784;-79
2022/06/25 07:03:09;;;;;;;;;;;;;;;27.53;44.95;100134.09;5028796;28;6784;-78
2022/06/25 07:05:35;;;;;;;;;;;;;;;27.63;44.01;100136.50;5039717;28;6925;-78
2022/06/25 07:08:00;;;;;;;;;;;;;;;27.67;43.52;100136.38;5038602;28;6859;-79
2022/06/25 07:10:26;;;;;;;;;;;;;;;27.69;43.33;100134.56;5019473;28;6788;-78
2022/06/25 07:12:52;;;;;;;;;;;;;;;27.69;43.08;100137.19;5024796;28;8490;-79
2022/06/25 07:15:19;;;;;;;;;;;;;;;27.72;43.34;100139.75;5020615;28;6799;-79
2022/06/25 07:17:45;;;;;;;;;;;;;;;27.86;43.32;100131.44;5020178;28;6800;-79
2022/06/25 07:20:10;;;;;;;;;;;;;;;28.02;43.23;100131.03;5039057;28;6991;-78
2022/06/25 07:22:37;;;;;;;;;;;;;;;28.21;42.82;100139.25;5036698;28;6811;-79
2022/06/25 07:25:04;;;;;;;;;;;;;;;28.32;41.94;100138.94;5021704;28;6804;-79
2022/06/25 07:27:29;;;;;;;;;;;;;;;28.35;42.15;100143.28;5021464;28;6799;-80
2022/06/25 07:29:57;;;;;;;;;;;;;;;28.33;41.82;100145.06;5003051;28;7080;-79
2022/06/25 07:32:23;;;;;;;;;;;;;;;28.32;41.87;100144.22;5018071;28;7005;-80
2022/06/25 07:34:51;;;;;;;;;;;;;;;28.39;41.74;100139.63;5025055;28;6855;-80
2022/06/25 07:37:17;;;;;;;;;;;;;;;28.44;41.54;100137.69;5017381;28;6883;-79
2022/06/25 07:39:44;;;;;;;;;;;;;;;28.47;41.15;100140.25;5009264;28;6803;-79
2022/06/25 07:42:11;;;;;;;;;;;;;;;28.49;40.89;100135.78;5007412;28;7007;-80
2022/06/25 07:44:37;;;;;;;;;;;;;;;28.53;41.40;100140.03;5008774;28;6871;-80
2022/06/25 07:47:05;;;;;;;;;;;;;;;28.60;41.27;100131.97;5005517;28;6940;-79
2022/06/25 07:51:56;;;;;;;;;;;;;;;28.73;41.04;100137.72;4992499;28;7219;-79
2022/06/25 07:52:16;;;;;;;;;;;;;;;28.87;40.94;100145.22;5014127;28;6972;-77
2022/06/25 07:54:43;;;;;;;;;;;;;;;29.06;40.53;100150.72;5021877;28;6784;-79
2022/06/25 07:57:08;;;;;;;;;;;;;;;29.34;40.99;100133.97;5019084;28;6855;-79
2022/06/25 07:59:34;;;;;;;;;;;;;;;29.61;41.02;100145.38;5025079;28;6887;-78
2022/06/25 08:02:00;;;;;;;;;;;;;;;30.01;40.42;100136.91;5016643;28;6838;-79
2022/06/25 08:04:26;;;;;;;;;;;;;;;30.44;39.41;100132.63;5034323;28;6850;-79
2022/06/25 08:06:54;;;;;;;;;;;;;;;30.82;38.89;100129.41;5032616;28;6890;-79
2022/06/25 08:09:20;;;;;;;;;;;;;;;31.19;37.89;100129.66;5036339;28;6792;-79
2022/06/25 08:11:46;;;;;;;;;;;;;;;31.49;37.33;100125.78;5010823;28;7031;-79
2022/06/25 08:14:11;;;;;;;;;;;;;;;31.73;37.28;100129.97;5000814;28;7249;-79
2022/06/25 08:16:38;;;;;;;;;;;;;;;31.92;37.22;100118.56;5000940;28;6784;-79
2022/06/25 08:19:04;;;;;;;;;;;;;;;32.09;36.83;100128.38;5020518;28;6784;-79
2022/06/25 08:21:29;;;;;;;;;;;;;;;32.21;36.38;100132.25;5036649;28;7506;-80
2022/06/25 08:23:55;;;;;;;;;;;;;;;32.34;36.03;100135.19;5014526;28;6777;-79
2022/06/25 08:26:21;;;;;;;;;;;;;;;32.39;35.26;100132.34;5020305;28;6764;-79
2022/06/25 08:28:47;;;;;;;;;;;;;;;32.33;35.57;100135.25;5013457;28;6860;-79
2022/06/25 08:31:13;;;;;;;;;;;;;;;32.27;34.98;100129.31;5018313;28;7860;-79
2022/06/25 08:33:39;;;;;;;;;;;;;;;32.30;35.42;100130.94;5014569;28;6784;-79
2022/06/25 08:36:05;;;;;;;;;;;;;;;32.49;35.21;100128.31;5000610;28;6847;-79
2022/06/25 08:38:31;;;;;;;;;;;;;;;32.51;34.71;100131.75;5017173;28;6776;-79
2022/06/25 08:41:00;;;;;;;;;;;;;;;32.47;34.39;100132.84;5029509;28;6795;-79
2022/06/25 08:43:28;;;;;;;;;;;;;;;32.38;34.06;100133.28;5010702;28;6875;-80
2022/06/25 08:45:57;;;;;;;;;;;;;;;32.26;34.43;100132.91;5018123;28;6852;-79
2022/06/25 08:48:30;;;;;;;;;;;;;;;32.09;34.33;100135.50;5021019;28;7869;-80
2022/06/25 08:50:58;;;;;;;;;;;;;;;31.88;34.26;100132.03;5017149;28;6820;-79
2022/06/25 08:53:33;;;;;;;;;;;;;;;31.65;35.17;100132.09;5026763;28;6784;-79
2022/06/25 08:56:03;;;;;;;;;;;;;;;31.63;35.44;100139.25;5004298;28;6994;-79
2022/06/25 08:58:29;;;;;;;;;;;;;;;31.64;35.11;100140.97;5025548;28;7316;-80
2022/06/25 09:00:54;;;;;;;;;;;;;;;31.59;35.27;100143.81;5016044;28;6810;-79
2022/06/25 09:03:20;;;;;;;;;;;;;;;31.81;35.04;100136.75;5040848;28;11081;-79
2022/06/25 09:05:46;;;;;;;;;;;;;;;32.16;34.68;100125.44;5042479;28;6772;-79
2022/06/25 09:08:15;;;;;;;;;;;;;;;32.20;33.70;100130.53;5042676;28;6839;-79
2022/06/25 09:10:45;;;;;;;;;;;;;;;32.00;33.98;100129.69;5021997;28;6934;-80
2022/06/25 09:13:13;;;;;;;;;;;;;;;32.07;34.18;100124.09;5022517;28;6788;-80
2022/06/25 09:15:45;;;;;;;;;;;;;;;32.11;33.68;100126.53;5029408;28;6788;-80
2022/06/25 09:18:17;;;;;;;;;;;;;;;32.06;33.38;100125.88;5001590;28;6848;-79
2022/06/25 09:21:03;;;;;;;;;;;;;;;32.46;33.86;100117.88;5023667;28;6878;-79
2022/06/25 09:24:01;;;;;;;;;;;;;;;33.13;33.45;100117.25;5046437;28;6808;-79
2022/06/25 09:26:26;;;;;;;;;;;;;;;34.05;32.70;100115.16;5042225;28;6808;-79
2022/06/25 09:28:52;;;;;;;;;;;;;;;34.59;31.53;100112.13;5021795;28;6768;-80
2022/06/25 09:31:38;;;;;;;;;;;;;;;34.78;30.38;100103.09;5023642;28;6828;-80
2022/06/25 09:34:07;;;;;;;;;;;;;;;34.61;30.55;100098.75;5022585;28;6891;-80
2022/06/25 09:36:32;;;;;;;;;;;;;;;34.67;30.79;100106.41;5007148;28;6998;-80
2022/06/25 09:38:58;;;;;;;;;;;;;;;35.12;30.96;100101.13;5035493;28;6915;-79
2022/06/25 09:41:26;;;;;;;;;;;;;;;35.70;30.23;100098.53;5015526;28;11788;-79
2022/06/25 09:43:53;;;;;;;;;;;;;;;36.11;29.95;100094.19;5016303;28;6789;-83
2022/06/25 09:46:20;;;;;;;;;;;;;;;36.50;28.87;100088.16;5018240;28;7872;-80
2022/06/25 09:48:45;;;;;;;;;;;;;;;36.54;27.98;100100.34;5015870;28;7236;-80
2022/06/25 09:51:19;;;;;;;;;;;;;;;36.33;28.39;100097.28;5011035;28;6776;-83
2022/06/25 09:53:52;;;;;;;;;;;;;;;35.97;28.33;100100.38;5000513;28;6804;-81
2022/06/25 09:56:32;;;;;;;;;;;;;;;35.39;28.58;100099.53;5022882;28;7007;-82
2022/06/25 09:58:59;;;;;;;;;;;;;;;34.78;28.91;100102.25;5004143;28;6804;-80
2022/06/25 10:01:29;;;;;;;;;;;;;;;34.24;29.71;100103.50;4997642;28;7433;-80
2022/06/25 10:03:56;;;;;;;;;;;;;;;33.73;29.86;100105.31;5039731;28;7997;-79
2022/06/25 10:06:24;;;;;;;;;;;;;;;33.30;30.55;100113.72;5029579;28;8015;-79
2022/06/25 10:08:58;;;;;;;;;;;;;;;33.16;31.35;100116.25;5040321;28;6804;-80
2022/06/25 10:11:34;;;;;;;;;;;;;;;33.29;31.34;100111.16;5009809;28;6796;-80
2022/06/25 10:14:00;;;;;;;;;;;;;;;33.27;31.15;100111.22;5007748;28;7210;-85
2022/06/25 10:16:29;;;;;;;;;;;;;;;33.06;31.29;100114.06;5020276;28;7204;-80
2022/06/25 10:18:55;;;;;;;;;;;;;;;32.76;31.76;100112.00;5036469;28;6800;-80
2022/06/25 10:21:24;;;;;;;;;;;;;;;32.49;32.03;100114.19;5014168;28;9622;-80
2022/06/25 10:24:04;;;;;;;;;;;;;;;32.21;32.14;100110.16;5022853;28;6867;-79
2022/06/25 10:26:31;;;;;;;;;;;;;;;31.96;32.16;100119.28;4991035;28;6804;-80
2022/06/25 10:29:31;;;;;;;;;;;;;;;31.77;32.88;100113.94;4996415;28;6832;-88
2022/06/25 10:32:18;;;;;;;;;;;;;;;31.71;32.89;100110.66;4999575;28;7002;-84
2022/06/25 10:34:53;;;;;;;;;;;;;;;31.90;33.38;100111.63;5018947;28;6785;-83
2022/06/25 10:37:19;;;;;;;;;;;;;;;32.11;33.00;100101.81;5021501;28;6915;-84
2022/06/25 10:39:54;;;;;;;;;;;;;;;32.29;32.83;100094.75;5015122;28;6792;-84
2022/06/25 10:45:45;;;;;;;;;;;;;;;33.28;32.90;100104.13;5032204;28;6796;-85
2022/06/25 10:48:13;;;;;;;;;;;;;;;33.84;31.87;100102.06;5022853;28;6796;-84
2022/06/25 10:50:43;;;;;;;;;;;;;;;34.11;31.40;100093.56;5005624;28;7699;-84
2022/06/25 10:53:09;;;;;;;;;;;;;;;34.23;30.56;100091.97;5045974;28;6796;-84
2022/06/25 10:56:00;;;;;;;;;;;;;;;34.24;30.55;100093.72;5020128;28;6764;-84
2022/06/25 10:58:42;;;;;;;;;;;;;;;34.16;30.32;100095.94;5032565;28;7003;-84
2022/06/25 11:01:27;;;;;;;;;;;;;;;34.07;30.37;100097.31;5030046;28;7455;-84
2022/06/25 11:04:03;;;;;;;;;;;;;;;33.90;30.11;100096.44;5013928;28;6804;-84
2022/06/25 11:06:36;;;;;;;;;;;;;;;33.72;30.51;100097.44;5028999;28;6788;-84
2022/06/25 11:09:15;;;;;;;;;;;;;;;33.57;30.90;100094.66;5005551;28;7401;-84
2022/06/25 11:11:47;;;;;;;;;;;;;;;33.52;31.09;100097.56;5014426;28;7052;-84
2022/06/25 11:14:24;;;;;;;;;;;;;;;33.52;30.86;100096.72;5029702;28;6812;-84
2022/06/25 11:16:51;;;;;;;;;;;;;;;33.58;31.25;100096.38;5027387;28;7148;-84
2022/06/25 11:19:21;;;;;;;;;;;;;;;33.73;30.47;100088.53;5030727;28;6864;-84
2022/06/25 11:21:48;;;;;;;;;;;;;;;33.88;30.36;100089.47;5032048;28;6818;-84
2022/06/25 11:24:20;;;;;;;;;;;;;;;33.96;29.94;100100.56;5017379;28;6792;-85
2022/06/25 11:29:51;;;;;;;;;;;;;;;33.90;29.80;100099.09;5034450;28;7298;-84
2022/06/25 11:32:23;;;;;;;;;;;;;;;34.01;30.53;100093.19;5032257;28;6788;-84
2022/06/25 11:35:00;;;;;;;;;;;;;;;34.30;29.62;100101.34;5022783;28;7085;-84
2022/06/25 11:37:29;;;;;;;;;;;;;;;34.46;29.84;100096.00;5014645;28;8631;-84
2022/06/25 11:39:54;;;;;;;;;;;;;;;34.46;29.53;100097.81;5016600;28;6868;-84
2022/06/25 11:42:21;;;;;;;;;;;;;;;34.32;29.03;100095.94;5015490;28;6840;-84
2022/06/25 11:44:53;;;;;;;;;;;;;;;34.17;29.86;100108.31;5032412;28;6792;-84
2022/06/25 11:47:22;;;;;;;;;;;;;;;34.05;30.21;100109.84;5032295;28;6946;-84
2022/06/25 11:49:49;;;;;;;;;;;;;;;34.01;29.73;100106.47;5049306;28;6792;-84
2022/06/25 11:52:17;;;;;;;;;;;;;;;33.95;30.52;100106.81;5008579;28;6788;-84
2022/06/25 11:54:45;;;;;;;;;;;;;;;33.96;30.36;100102.34;5032207;28;6784;-84
2022/06/25 11:57:21;;;;;;;;;;;;;;;34.01;30.54;100109.13;5006523;28;6983;-85
2022/06/25 11:59:49;;;;;;;;;;;;;;;34.27;30.32;100108.63;5015815;28;6808;-88
2022/06/25 12:02:14;;;;;;;;;;;;;;;34.84;29.81;100101.88;4993751;28;7775;-81
2022/06/25 12:04:57;;;;;;;;;;;;;;;35.28;29.33;100094.84;5013591;28;6898;-79
2022/06/25 12:07:25;;;;;;;;;;;;;;;35.51;29.05;100100.59;5034073;28;7609;-80
2022/06/25 12:09:56;;;;;;;;;;;;;;;35.92;28.39;100091.81;5036356;28;8053;-79
2022/06/25 12:12:24;;;;;;;;;;;;;;;36.34;28.33;100086.50;5004157;28;7476;-79
2022/06/25 12:14:51;;;;;;;;;;;;;;;36.48;27.97;100087.41;5037239;28;6799;-79
2022/06/25 12:17:20;;;;;;;;;;;;;;;36.48;27.44;100084.72;5019874;28;6788;-79
2022/06/25 12:19:51;;;;;;;;;;;;;;;36.40;27.87;100080.75;5023348;28;6784;-79
2022/06/25 12:22:24;;;;;;;;;;;;;;;36.26;27.75;100086.16;5006746;28;6855;-79
2022/06/25 12:24:52;;;;;;;;;;;;;;;36.10;27.32;100080.97;5024199;28;6955;-79
2022/06/25 12:27:18;;;;;;;;;;;;;;;35.93;27.72;100079.38;5018297;28;6866;-78
2022/06/25 12:29:55;;;;;;;;;;;;;;;35.82;27.73;100083.53;5015770;28;7098;-79
2022/06/25 12:32:43;;;;;;;;;;;;;;;35.81;27.91;100084.50;5033643;28;6864;-80
2022/06/25 12:35:17;;;;;;;;;;;;;;;35.79;27.92;100080.25;5018137;28;7695;-79
2022/06/25 12:38:05;;;;;;;;;;;;;;;35.71;28.15;100083.38;5018708;28;6795;-79
2022/06/25 12:40:57;;;;;;;;;;;;;;;35.56;27.75;100083.41;5020544;28;6808;-79
2022/06/25 12:43:25;;;;;;;;;;;;;;;35.37;27.71;100083.63;5023499;28;6804;-79
2022/06/25 12:45:53;;;;;;;;;;;;;;;35.25;27.80;100085.28;5037443;28;6796;-79
2022/06/25 12:48:29;;;;;;;;;;;;;;;35.07;28.54;100089.03;5009547;28;6804;-79
2022/06/25 12:51:14;;;;;;;;;;;;;;;34.88;28.92;100084.78;5021871;28;6792;-79
2022/06/25 12:53:43;;;;;;;;;;;;;;;34.79;29.00;100088.00;5017067;28;6804;-78
2022/06/25 12:56:12;;;;;;;;;;;;;;;34.76;29.16;100091.69;5011779;28;6961;-78
2022/06/25 12:58:41;;;;;;;;;;;;;;;34.76;29.65;100086.38;5024904;28;6803;-79
2022/06/25 13:01:18;;;;;;;;;;;;;;;34.83;30.36;100079.75;5021050;28;7145;-79
2022/06/25 13:03:44;;;;;;;;;;;;;;;34.87;29.61;100089.25;5020561;28;6796;-78
2022/06/25 13:06:09;;;;;;;;;;;;;;;34.73;29.62;100090.06;5020223;28;6784;-79
2022/06/25 13:08:35;;;;;;;;;;;;;;;34.57;29.24;100083.91;5018980;28;6851;-78